Time;durP1;ratioP1;P1;durP2;ratioP2;P2;SDS_P1;SDS_P2;PMS_P1;PMS_P2;Temp;Humidity;BMP_temperature;BMP_pressure;BME280_temperature;BME280_humidity;BME280_pressure;Samples;Min_cycle;Max_cycle;Signal;HPM_P1;HPM_P2
2022/05/23 00:02:03;;;;;;;0.88;0.88;;;24.90;43.50;;;;;;4888859;29;20116;-59
2022/05/23 00:04:30;;;;;;;0.80;0.80;;;24.90;43.50;;;;;;4893139;29;20056;-60
2022/05/23 00:06:58;;;;;;;0.85;0.80;;;24.90;43.50;;;;;;4894520;29;20057;-60
2022/05/23 00:09:26;;;;;;;2.13;0.93;;;24.90;43.50;;;;;;4897383;29;20048;-60
2022/05/23 00:11:53;;;;;;;0.70;0.70;;;24.90;43.60;;;;;;4897063;29;20076;-59
2022/05/23 00:14:21;;;;;;;0.80;0.80;;;24.90;43.60;;;;;;4897627;29;20562;-60
2022/05/23 00:16:50;;;;;;;0.90;0.90;;;24.90;43.60;;;;;;4896908;29;20091;-59
2022/05/23 00:19:19;;;;;;;1.33;0.98;;;24.90;43.60;;;;;;4897413;29;20236;-60
2022/05/23 00:21:46;;;;;;;0.80;0.80;;;24.90;43.70;;;;;;4895853;29;20096;-60
2022/05/23 00:24:14;;;;;;;0.70;0.70;;;24.90;43.70;;;;;;4897223;29;20185;-60
2022/05/23 00:26:43;;;;;;;0.80;0.80;;;24.90;43.70;;;;;;4896165;29;20056;-59
2022/05/23 00:29:10;;;;;;;0.80;0.80;;;24.90;43.70;;;;;;4897012;29;20123;-60
2022/05/23 00:35:17;;;;;;;1.33;0.82;;;24.90;43.70;;;;;;4897125;29;20140;-60
2022/05/23 00:37:12;;;;;;;1.10;1.10;;;24.80;43.70;;;;;;4895866;29;20687;-60
2022/05/23 00:39:40;;;;;;;0.90;0.90;;;24.80;43.70;;;;;;4896967;29;20513;-60
2022/05/23 00:44:58;;;;;;;1.00;1.00;;;24.80;43.70;;;;;;4895735;29;20669;-60
2022/05/23 00:47:27;;;;;;;0.65;0.65;;;24.80;43.70;;;;;;4896821;29;20052;-60
2022/05/23 00:49:54;;;;;;;0.98;0.98;;;24.80;43.70;;;;;;4895258;29;20694;-60
2022/05/23 00:52:32;;;;;;;0.77;0.77;;;24.80;43.70;;;;;;4896928;29;20417;-60
2022/05/23 00:55:05;;;;;;;0.60;0.60;;;24.80;43.80;;;;;;4896593;29;20108;-60
2022/05/23 00:57:37;;;;;;;0.80;0.80;;;24.90;43.80;;;;;;4895579;29;20463;-60
2022/05/23 01:00:08;;;;;;;0.95;0.80;;;24.80;43.80;;;;;;4896275;29;20398;-60
2022/05/23 01:02:36;;;;;;;0.73;0.73;;;24.80;43.80;;;;;;4897009;29;20052;-60
2022/05/23 01:05:05;;;;;;;0.60;0.60;;;24.80;43.80;;;;;;4891767;29;20055;-60
2022/05/23 01:07:32;;;;;;;1.23;1.13;;;24.80;43.80;;;;;;4894723;29;20454;-60
2022/05/23 01:10:00;;;;;;;1.33;1.23;;;24.80;43.70;;;;;;4896399;29;20081;-59
2022/05/23 01:12:29;;;;;;;0.57;0.57;;;24.90;43.80;;;;;;4896171;29;20113;-60
2022/05/23 01:14:59;;;;;;;0.88;0.70;;;24.80;43.70;;;;;;4895070;29;20561;-60
2022/05/23 01:17:28;;;;;;;1.10;1.00;;;24.90;43.70;;;;;;4896196;29;20049;-60
2022/05/23 01:19:55;;;;;;;0.70;0.70;;;24.80;43.70;;;;;;4896404;29;20065;-60
2022/05/23 01:22:40;;;;;;;0.68;0.68;;;24.90;43.70;;;;;;4895021;29;20049;-60
2022/05/23 01:25:44;;;;;;;0.80;0.80;;;24.90;43.70;;;;;;4878731;29;20053;-60
2022/05/23 01:28:12;;;;;;;0.80;0.80;;;24.90;43.70;;;;;;4896561;29;20486;-60
2022/05/23 01:30:41;;;;;;;0.85;0.85;;;24.90;43.70;;;;;;4895122;29;20429;-60
2022/05/23 01:33:10;;;;;;;0.90;0.90;;;24.90;43.70;;;;;;4895611;29;20434;-60
2022/05/23 01:35:38;;;;;;;1.00;1.00;;;24.80;43.70;;;;;;4890524;29;20053;-60
2022/05/23 01:38:05;;;;;;;0.70;0.70;;;24.80;43.70;;;;;;4895866;29;20052;-59
2022/05/23 01:40:33;;;;;;;0.90;0.90;;;24.80;43.70;;;;;;4893968;29;20049;-60
2022/05/23 01:43:00;;;;;;;0.60;0.60;;;24.80;43.70;;;;;;4895444;29;20588;-59
2022/05/23 01:45:32;;;;;;;0.90;0.90;;;24.80;43.80;;;;;;4895865;29;20051;-59
2022/05/23 01:48:00;;;;;;;0.70;0.70;;;24.80;43.80;;;;;;4894178;29;20389;-60
2022/05/23 01:50:27;;;;;;;0.70;0.70;;;24.80;43.80;;;;;;4895803;29;20107;-59
2022/05/23 01:52:55;;;;;;;1.23;0.90;;;24.80;43.80;;;;;;4894279;29;20052;-60
2022/05/23 01:55:22;;;;;;;0.90;0.90;;;24.80;43.80;;;;;;4895279;29;20052;-60
2022/05/23 01:57:49;;;;;;;1.13;1.02;;;24.70;43.80;;;;;;4894184;29;20111;-60
2022/05/23 02:03:05;;;;;;;1.95;0.90;;;24.80;43.80;;;;;;4895453;29;20057;-60
2022/05/23 02:05:33;;;;;;;0.80;0.80;;;24.70;43.80;;;;;;4894810;29;20129;-60
2022/05/23 02:08:01;;;;;;;1.15;0.82;;;24.70;43.80;;;;;;4891335;29;20306;-60
2022/05/23 02:10:29;;;;;;;1.00;1.00;;;24.70;43.90;;;;;;4895225;29;20127;-60
2022/05/23 02:12:59;;;;;;;0.73;0.73;;;24.70;43.90;;;;;;4894764;29;20113;-60
2022/05/23 02:15:28;;;;;;;0.93;0.93;;;24.70;43.90;;;;;;4895429;29;20056;-59
2022/05/23 02:18:01;;;;;;;0.70;0.70;;;24.70;43.90;;;;;;4895292;29;20045;-60
2022/05/23 02:20:29;;;;;;;0.52;0.52;;;24.70;43.90;;;;;;4894810;29;20466;-60
2022/05/23 02:22:56;;;;;;;0.70;0.70;;;24.70;44.00;;;;;;4895097;29;20108;-60
2022/05/23 02:25:25;;;;;;;0.90;0.90;;;24.70;44.00;;;;;;4895145;29;20052;-60
2022/05/23 02:27:53;;;;;;;0.90;0.90;;;24.70;44.00;;;;;;4893795;29;20084;-60
2022/05/23 02:30:21;;;;;;;0.70;0.70;;;24.70;44.00;;;;;;4893720;29;20124;-60
2022/05/23 02:32:49;;;;;;;0.63;0.63;;;24.70;44.00;;;;;;4893867;29;20112;-60
2022/05/23 02:35:17;;;;;;;0.70;0.70;;;24.70;44.00;;;;;;4894586;29;20052;-60
2022/05/23 02:37:45;;;;;;;0.70;0.70;;;24.70;44.00;;;;;;4894380;29;20040;-60
2022/05/23 02:40:13;;;;;;;1.35;0.80;;;24.70;44.00;;;;;;4890039;29;20417;-60
2022/05/23 02:42:40;;;;;;;0.73;0.73;;;24.70;44.00;;;;;;4894682;29;20124;-60
2022/05/23 02:45:08;;;;;;;0.80;0.80;;;24.70;44.10;;;;;;4894626;29;20450;-60
2022/05/23 02:47:36;;;;;;;0.60;0.60;;;24.70;44.00;;;;;;4894922;29;20052;-59
2022/05/23 02:50:05;;;;;;;0.88;0.70;;;24.70;44.00;;;;;;4892781;29;20045;-60
2022/05/23 02:52:32;;;;;;;0.73;0.65;;;24.70;44.00;;;;;;4894620;29;20116;-60
2022/05/23 02:54:59;;;;;;;1.10;1.00;;;24.70;44.00;;;;;;4892908;29;20056;-59
2022/05/23 02:57:27;;;;;;;0.55;0.50;;;24.70;43.90;;;;;;4893742;29;20052;-60
2022/05/23 02:59:54;;;;;;;0.60;0.60;;;24.70;43.90;;;;;;4894202;29;20044;-60
2022/05/23 03:05:09;;;;;;;0.80;0.80;;;24.70;43.90;;;;;;4894241;29;20045;-60
2022/05/23 03:07:37;;;;;;;0.70;0.70;;;24.70;43.90;;;;;;4894351;29;20052;-60
2022/05/23 03:10:05;;;;;;;0.60;0.60;;;24.70;43.90;;;;;;4873139;29;20125;-57
2022/05/23 03:12:34;;;;;;;0.68;0.68;;;24.70;43.90;;;;;;4893024;29;20489;-60
2022/05/23 03:15:03;;;;;;;0.85;0.85;;;24.70;43.80;;;;;;4893757;29;20493;-61
2022/05/23 03:17:30;;;;;;;0.82;0.82;;;24.70;43.80;;;;;;4894298;29;20140;-60
2022/05/23 03:19:58;;;;;;;0.70;0.70;;;24.80;43.90;;;;;;4893473;29;20056;-60
2022/05/23 03:27:59;;;;;;;0.77;0.77;;;24.80;43.90;;;;;;4893217;29;20048;-60
2022/05/23 03:30:28;;;;;;;0.60;0.60;;;24.70;43.80;;;;;;4891992;29;20108;-60
2022/05/23 03:32:59;;;;;;;1.30;1.20;;;24.80;43.90;;;;;;4901800;29;20072;-60
2022/05/23 03:35:29;;;;;;;0.52;0.52;;;24.70;43.80;;;;;;4889096;29;20056;-60
2022/05/23 03:37:56;;;;;;;0.68;0.50;;;24.70;43.80;;;;;;4892318;29;20421;-60
2022/05/23 03:40:24;;;;;;;0.65;0.65;;;24.80;43.90;;;;;;4890863;29;20493;-61
2022/05/23 03:42:51;;;;;;;1.23;1.13;;;24.70;43.80;;;;;;4887193;29;20522;-61
2022/05/23 03:45:18;;;;;;;0.65;0.65;;;24.80;43.90;;;;;;4893171;29;20275;-60
2022/05/23 03:47:46;;;;;;;0.50;0.50;;;24.80;43.90;;;;;;4891740;29;20060;-60
2022/05/23 03:50:14;;;;;;;0.63;0.63;;;24.80;43.90;;;;;;4881515;29;20184;-60
2022/05/23 03:52:41;;;;;;;0.82;0.77;;;24.70;43.80;;;;;;4893441;29;20057;-60
2022/05/23 03:55:08;;;;;;;0.75;0.75;;;24.70;43.80;;;;;;4889293;29;20116;-61
2022/05/23 03:57:37;;;;;;;0.73;0.73;;;24.80;43.80;;;;;;4892520;29;20091;-61
2022/05/23 04:00:09;;;;;;;0.60;0.60;;;24.80;43.80;;;;;;4892546;29;20517;-60
2022/05/23 04:02:36;;;;;;;1.38;0.98;;;24.80;43.80;;;;;;4893570;29;20108;-61
2022/05/23 04:05:04;;;;;;;0.80;0.80;;;24.80;43.80;;;;;;4893106;29;20136;-60
2022/05/23 04:07:34;;;;;;;0.80;0.80;;;24.80;43.80;;;;;;4891866;29;20108;-60
2022/05/23 04:10:03;;;;;;;0.60;0.60;;;24.80;43.80;;;;;;4894125;29;20053;-60
2022/05/23 04:12:30;;;;;;;1.05;0.90;;;24.80;43.80;;;;;;4893701;29;20330;-60
2022/05/23 04:14:57;;;;;;;0.85;0.85;;;24.80;43.80;;;;;;4888913;29;20057;-60
2022/05/23 04:17:24;;;;;;;0.60;0.60;;;24.80;43.70;;;;;;4893490;29;20104;-60
2022/05/23 04:19:51;;;;;;;0.93;0.93;;;24.80;43.70;;;;;;4893432;29;20140;-60
2022/05/23 04:22:18;;;;;;;0.73;0.73;;;24.80;43.70;;;;;;4893329;29;20116;-60
2022/05/23 04:24:45;;;;;;;0.55;0.55;;;24.80;43.70;;;;;;4893239;29;20056;-60
2022/05/23 04:27:18;;;;;;;0.65;0.60;;;24.90;43.70;;;;;;4893432;29;20048;-60
2022/05/23 04:29:45;;;;;;;0.70;0.70;;;24.90;43.60;;;;;;4893393;29;20052;-60
2022/05/23 04:35:15;;;;;;;0.70;0.70;;;24.90;43.50;;;;;;4889749;29;20087;-59
2022/05/23 04:37:45;;;;;;;0.80;0.77;;;24.90;43.50;;;;;;4883807;29;20044;-60
2022/05/23 04:40:15;;;;;;;0.60;0.60;;;25.00;43.50;;;;;;4882586;29;20435;-60
2022/05/23 04:42:42;;;;;;;;;;;24.90;43.40;;;;;;4884719;29;20128;-60
2022/05/23 04:45:10;;;;;;;0.82;0.82;;;24.90;43.40;;;;;;4880787;29;19982;-60
2022/05/23 04:50:26;;;;;;;0.65;0.65;;;25.00;43.30;;;;;;4883334;29;20049;-60
2022/05/23 04:52:56;;;;;;;1.00;1.00;;;25.00;43.30;;;;;;4890551;29;20080;-60
2022/05/23 04:55:23;;;;;;;0.63;0.63;;;25.00;43.30;;;;;;4894315;29;20100;-61
2022/05/23 04:57:52;;;;;;;0.70;0.70;;;25.00;43.20;;;;;;4894636;29;20048;-60
2022/05/23 05:00:21;;;;;;;0.63;0.57;;;25.10;43.20;;;;;;4895879;29;20084;-60
2022/05/23 05:02:49;;;;;;;1.00;1.00;;;25.10;43.20;;;;;;4895182;29;20103;-60
2022/05/23 05:05:19;;;;;;;0.80;0.80;;;25.10;43.10;;;;;;4895309;29;20155;-60
2022/05/23 05:07:46;;;;;;;2.55;1.00;;;25.10;43.00;;;;;;4894761;29;20502;-61
2022/05/23 05:10:13;;;;;;;0.73;0.73;;;25.10;43.00;;;;;;4892724;29;20270;-60
2022/05/23 05:12:40;;;;;;;1.30;0.80;;;25.10;42.90;;;;;;4891978;29;20056;-63
2022/05/23 05:15:08;;;;;;;0.65;0.65;;;25.10;43.00;;;;;;4881665;29;20071;-63
2022/05/23 05:17:36;;;;;;;0.95;0.80;;;24.90;42.90;;;;;;4878854;29;20554;-63
2022/05/23 05:20:04;;;;;;;0.50;0.50;;;24.80;42.90;;;;;;4889709;29;20057;-63
2022/05/23 05:22:31;;;;;;;0.60;0.60;;;24.70;43.10;;;;;;4886634;29;20045;-63
2022/05/23 05:24:58;;;;;;;1.85;0.88;;;24.50;43.40;;;;;;4888910;29;20104;-64
2022/05/23 05:27:26;;;;;;;0.52;0.52;;;24.30;43.80;;;;;;4876582;29;20521;-63
2022/05/23 05:29:53;;;;;;;2.75;0.82;;;24.10;44.00;;;;;;4881062;29;20478;-62
2022/05/23 05:32:44;;;;;;;0.80;0.80;;;24.00;44.30;;;;;;4886411;29;20052;-59
2022/05/23 05:35:21;;;;;;;1.00;0.90;;;23.70;44.40;;;;;;4884274;29;20393;-61
2022/05/23 05:38:15;;;;;;;2.42;1.20;;;23.40;44.40;;;;;;4885107;29;20053;-61
2022/05/23 05:40:47;;;;;;;3.35;1.58;;;23.10;44.50;;;;;;4873239;29;20048;-62
2022/05/23 05:43:21;;;;;;;5.05;2.17;;;22.90;44.60;;;;;;4880953;29;20063;-62
2022/05/23 05:45:53;;;;;;;3.67;2.03;;;22.60;44.90;;;;;;4885301;29;20053;-61
2022/05/23 05:48:20;;;;;;;2.28;1.83;;;22.40;45.40;;;;;;4885178;29;20049;-61
2022/05/23 05:54:30;;;;;;;5.35;2.20;;;22.10;45.60;;;;;;4886978;29;20124;-57
2022/05/23 05:57:01;;;;;;;3.20;1.73;;;22.00;46.50;;;;;;4885605;29;20105;-57
2022/05/23 05:59:37;;;;;;;2.75;1.77;;;21.90;46.00;;;;;;4893109;29;20037;-58
2022/05/23 06:02:07;;;;;;;3.83;1.60;;;21.70;45.80;;;;;;4898196;29;20520;-57
2022/05/23 06:13:50;;;;;;;3.85;1.80;;;21.30;46.90;;;;;;4891736;29;20096;-59
2022/05/23 06:16:22;;;;;;;1.52;1.38;;;21.20;46.30;;;;;;4891950;29;20044;-60
2022/05/23 06:22:41;;;;;;;2.45;1.77;;;21.10;47.30;;;;;;4894684;29;20108;-58
2022/05/23 06:25:09;;;;;;;2.22;1.52;;;20.90;46.60;;;;;;4894964;29;20533;-60
2022/05/23 06:27:37;;;;;;;3.08;1.58;;;20.90;47.00;;;;;;4895734;29;20585;-64
2022/05/23 06:30:06;;;;;;;3.47;1.63;;;20.80;47.70;;;;;;4890529;29;20091;-59
2022/05/23 06:39:56;;;;;;;2.75;1.35;;;20.70;47.80;;;;;;4888923;29;19934;-59
2022/05/23 06:42:23;;;;;;;5.20;1.50;;;20.70;47.50;;;;;;4894376;29;20076;-58
2022/05/23 06:44:51;;;;;;;2.30;1.20;;;20.70;47.60;;;;;;4901949;29;20386;-60
2022/05/23 06:47:18;;;;;;;4.60;1.30;;;20.60;48.10;;;;;;4901736;29;20455;-60
2022/05/23 06:49:45;;;;;;;2.67;1.50;;;20.60;47.70;;;;;;4902942;29;20049;-61
2022/05/23 06:52:15;;;;;;;1.92;1.50;;;20.60;47.40;;;;;;4901429;29;20116;-58
2022/05/23 06:54:42;;;;;;;2.20;1.20;;;20.60;47.80;;;;;;4900768;29;20565;-59
2022/05/23 06:57:10;;;;;;;6.07;1.88;;;20.50;47.80;;;;;;4900848;29;20104;-59
2022/05/23 06:59:38;;;;;;;3.78;1.63;;;20.50;47.40;;;;;;4901158;29;20056;-57
2022/05/23 07:02:07;;;;;;;1.67;1.20;;;20.60;47.50;;;;;;4901012;29;20454;-61
2022/05/23 07:16:37;;;;;;;3.95;1.60;;;20.70;47.30;;;;;;4886466;29;20047;-58
2022/05/23 07:19:05;;;;;;;2.00;1.17;;;20.70;47.80;;;;;;4880163;29;20048;-58
2022/05/23 07:21:32;;;;;;;2.90;1.40;;;20.70;47.50;;;;;;4884828;29;20103;-63
2022/05/23 07:24:11;;;;;;;4.35;1.58;;;20.70;47.30;;;;;;4892244;29;20084;-60
2022/05/23 07:30:21;;;;;;;;;;;20.60;48.20;;;;;;4892965;29;20449;-59
2022/05/23 07:32:50;;;;;;;3.67;1.38;;;20.60;47.70;;;;;;4895855;29;19927;-60
2022/05/23 07:35:55;;;;;;;4.35;1.35;;;20.60;47.90;;;;;;4898754;29;20115;-59
2022/05/23 07:38:23;;;;;;;1.35;1.25;;;20.70;48.30;;;;;;4893750;29;20056;-59
2022/05/23 07:41:13;;;;;;;4.07;1.52;;;20.70;47.60;;;;;;4900051;29;20048;-59
2022/05/23 07:43:41;;;;;;;2.53;1.80;;;20.70;47.60;;;;;;4899470;29;20542;-61
2022/05/23 07:46:13;;;;;;;7.35;1.38;;;20.80;48.10;;;;;;4891209;29;20041;-59
2022/05/23 07:48:43;;;;;;;5.20;1.48;;;20.80;47.50;;;;;;4895750;29;20056;-63
2022/05/23 07:51:11;;;;;;;3.25;0.95;;;20.90;47.30;;;;;;4898713;29;20460;-59
2022/05/23 08:02:01;;;;;;;1.45;1.35;;;20.90;47.30;;;;;;4896722;29;20044;-62
2022/05/23 08:04:28;;;;;;;4.95;1.17;;;20.90;47.30;;;;;;4892057;29;20651;-64
2022/05/23 08:06:56;;;;;;;5.65;1.48;;;21.00;46.90;;;;;;4885357;29;20052;-63
2022/05/23 08:13:09;;;;;;;4.18;1.23;;;21.10;47.10;;;;;;4891280;29;20365;-63
2022/05/23 08:15:38;;;;;;;4.05;1.40;;;21.10;46.70;;;;;;4893188;29;20089;-59
2022/05/23 08:18:07;;;;;;;2.25;1.20;;;21.10;47.00;;;;;;4900078;29;20073;-63
2022/05/23 08:20:37;;;;;;;5.20;1.23;;;21.10;47.10;;;;;;4899519;29;20052;-59
2022/05/23 08:26:55;;;;;;;2.72;1.63;;;21.10;46.70;;;;;;4899491;29;20104;-60
2022/05/23 08:29:22;;;;;;;2.03;1.10;;;21.10;47.00;;;;;;4901381;29;20052;-60
2022/05/23 08:31:56;;;;;;;3.42;1.08;;;21.10;46.80;;;;;;4899226;29;20402;-63
2022/05/23 08:34:23;;;;;;;3.22;1.30;;;21.10;46.90;;;;;;4899317;29;20055;-59
2022/05/23 08:48:01;;;;;;;3.70;1.10;;;21.00;46.80;;;;;;4901227;29;19918;-59
2022/05/23 08:51:01;;;;;;;4.35;1.33;;;21.00;46.90;;;;;;4902160;29;20417;-59
2022/05/23 08:53:36;;;;;;;5.90;1.35;;;21.00;47.40;;;;;;4898204;29;20052;-59
2022/05/23 08:56:33;;;;;;;3.53;1.20;;;21.00;47.50;;;;;;4902491;29;20085;-62
2022/05/23 08:59:42;;;;;;;4.30;1.48;;;21.00;47.00;;;;;;4898947;29;20382;-59
2022/05/23 09:02:38;;;;;;;5.60;1.60;;;21.10;47.20;;;;;;4891339;29;20044;-59
2022/05/23 09:05:12;;;;;;;3.58;1.30;;;21.10;46.70;;;;;;4901747;29;20056;-59
2022/05/23 09:07:51;;;;;;;3.08;1.65;;;21.10;46.90;;;;;;4891722;29;20044;-57
2022/05/23 09:14:00;;;;;;;4.53;1.83;;;21.10;46.50;;;;;;4900852;29;20051;-61
2022/05/23 09:16:42;;;;;;;4.85;1.52;;;21.10;47.00;;;;;;4884616;29;20045;-57
2022/05/23 09:19:50;;;;;;;1.45;1.35;;;21.10;47.20;;;;;;4901885;29;20052;-56
2022/05/23 09:22:23;;;;;;;3.33;1.75;;;21.10;46.60;;;;;;4903579;29;20080;-57
2022/05/23 09:24:57;;;;;;;1.90;1.20;;;21.00;47.10;;;;;;4902207;29;20053;-57
2022/05/23 09:27:51;;;;;;;4.68;1.45;;;21.00;47.30;;;;;;4895403;29;20291;-56
2022/05/23 09:30:26;;;;;;;3.78;1.67;;;21.00;46.80;;;;;;4881189;29;20515;-60
2022/05/23 09:33:42;;;;;;;5.28;1.73;;;21.00;47.20;;;;;;4880540;29;20101;-59
2022/05/23 09:36:18;;;;;;;2.30;1.27;;;21.00;47.40;;;;;;4881229;29;20124;-60
2022/05/23 09:49:21;;;;;;;1.92;1.27;;;21.10;46.70;;;;;;4895229;29;20109;-55
2022/05/23 09:52:12;;;;;;;1.95;1.30;;;21.20;47.20;;;;;;4877968;29;20057;-52
2022/05/23 09:54:52;;;;;;;1.00;1.00;;;21.20;46.40;;;;;;4864948;29;20486;-60
2022/05/23 09:57:52;;;;;;;3.55;1.10;;;21.30;46.50;;;;;;4867724;29;20109;-55
2022/05/23 10:00:32;;;;;;;6.13;1.00;;;21.40;46.80;;;;;;4869720;29;20053;-56
2022/05/23 10:03:03;;;;;;;;;;;21.50;46.40;;;;;;4859310;29;20057;-57
2022/05/23 10:05:39;;;;;;;2.50;1.67;;;21.60;46.50;;;;;;4885408;29;20027;-54
2022/05/23 10:08:30;;;;;;;2.95;1.00;;;21.70;47.10;;;;;;4864580;29;20087;-56
2022/05/23 10:10:59;;;;;;;2.75;1.40;;;21.90;47.00;;;;;;4868964;29;20148;-58
2022/05/23 10:13:43;;;;;;;3.10;1.65;;;21.90;46.80;;;;;;4872758;29;20096;-58
2022/05/23 10:16:13;;;;;;;1.85;1.02;;;22.00;46.60;;;;;;4864753;29;20570;-55
2022/05/23 10:18:57;;;;;;;1.65;1.00;;;22.10;46.70;;;;;;4865384;29;20045;-57
2022/05/23 10:21:39;;;;;;;2.13;1.20;;;22.10;46.10;;;;;;4868465;29;20084;-54
2022/05/23 10:24:23;;;;;;;2.80;1.10;;;22.20;46.10;;;;;;4868455;29;20061;-57
2022/05/23 10:27:06;;;;;;;2.15;1.55;;;22.20;45.90;;;;;;4871494;29;20083;-57
2022/05/23 10:29:53;;;;;;;3.03;1.17;;;22.20;45.80;;;;;;4869561;29;20793;-57
2022/05/23 10:32:48;;;;;;;2.17;1.17;;;22.20;45.60;;;;;;4866781;29;20045;-56
2022/05/23 10:35:29;;;;;;;2.05;1.13;;;22.20;45.60;;;;;;4864215;29;20477;-55
2022/05/23 10:43:50;;;;;;;1.55;1.33;;;22.20;45.90;;;;;;4862716;29;20113;-57
2022/05/23 10:46:18;;;;;;;3.13;1.27;;;22.30;45.50;;;;;;4865298;29;20059;-57
2022/05/23 10:49:14;;;;;;;1.25;1.20;;;22.30;45.20;;;;;;4866284;29;20052;-56
2022/05/23 10:52:10;;;;;;;1.70;1.15;;;22.40;45.20;;;;;;4867490;29;20117;-56
2022/05/23 10:55:16;;;;;;;1.30;0.90;;;22.40;45.10;;;;;;4864296;29;20057;-56
2022/05/23 10:58:08;;;;;;;3.15;0.95;;;22.40;44.70;;;;;;4864406;29;20050;-56
2022/05/23 11:00:52;;;;;;;2.38;1.02;;;22.50;44.70;;;;;;4875520;29;20081;-56
2022/05/23 11:03:39;;;;;;;1.00;0.90;;;22.50;44.50;;;;;;4863242;29;20052;-56
2022/05/23 11:06:44;;;;;;;2.00;0.90;;;22.50;44.60;;;;;;4859765;29;20131;-56
2022/05/23 11:09:38;;;;;;;1.67;1.00;;;22.50;44.90;;;;;;4880525;29;20109;-57
2022/05/23 11:12:45;;;;;;;1.20;1.10;;;22.50;44.70;;;;;;4878131;29;20509;-58
2022/05/23 11:15:51;;;;;;;0.80;0.80;;;22.60;44.50;;;;;;4862267;29;20053;-58
2022/05/23 11:18:55;;;;;;;3.40;1.02;;;22.50;44.10;;;;;;4875551;29;20061;-60
2022/05/23 11:21:46;;;;;;;2.85;1.20;;;22.50;44.00;;;;;;4867874;29;20417;-58
2022/05/23 11:24:40;;;;;;;3.88;1.90;;;22.50;44.20;;;;;;4867668;29;20089;-61
2022/05/23 11:33:47;;;;;;;1.70;1.00;;;22.50;43.80;;;;;;4862645;29;20049;-59
2022/05/23 11:35:59;;;;;;;1.30;1.20;;;22.60;44.00;;;;;;4865368;29;20204;-59
2022/05/23 11:38:29;;;;;;;3.28;1.02;;;22.60;43.70;;;;;;4858447;29;20053;-58
2022/05/23 11:41:09;;;;;;;2.45;1.20;;;22.70;44.20;;;;;;4864071;29;20433;-58
2022/05/23 11:43:36;;;;;;;2.50;1.38;;;22.70;43.90;;;;;;4877628;29;20396;-58
2022/05/23 11:46:10;;;;;;;2.75;1.08;;;22.80;43.60;;;;;;4864073;29;20056;-58
2022/05/23 11:48:47;;;;;;;2.33;1.48;;;22.80;43.60;;;;;;4864344;29;20131;-58
2022/05/23 11:51:36;;;;;;;2.97;1.50;;;22.80;43.50;;;;;;4866442;29;20092;-58
2022/05/23 11:54:37;;;;;;;3.70;1.58;;;22.90;43.70;;;;;;4863124;29;20447;-58
2022/05/23 11:57:16;;;;;;;6.80;1.05;;;22.80;43.90;;;;;;4878370;29;20080;-59
2022/05/23 12:00:06;;;;;;;1.42;0.90;;;22.90;43.80;;;;;;4882618;29;20057;-58
2022/05/23 12:02:38;;;;;;;2.25;1.15;;;22.80;43.40;;;;;;4879434;29;20148;-58
2022/05/23 12:05:12;;;;;;;1.27;1.17;;;22.70;43.60;;;;;;4865255;29;20068;-59
2022/05/23 12:08:02;;;;;;;2.75;1.10;;;22.70;43.80;;;;;;4867547;29;20064;-58
2022/05/23 12:10:43;;;;;;;2.72;1.00;;;22.70;44.00;;;;;;4872523;29;20092;-58
2022/05/23 12:13:39;;;;;;;0.88;0.60;;;22.70;43.80;;;;;;4879805;29;20478;-58
2022/05/23 12:16:34;;;;;;;2.35;1.48;;;22.70;43.50;;;;;;4872590;29;20045;-59
2022/05/23 12:19:41;;;;;;;1.67;1.25;;;22.70;43.30;;;;;;4868623;29;20525;-59
2022/05/23 12:22:19;;;;;;;3.10;1.15;;;22.70;43.20;;;;;;4877698;29;20072;-59
2022/05/23 12:25:22;;;;;;;2.58;1.55;;;22.70;43.10;;;;;;4871109;29;20132;-58
2022/05/23 12:28:17;;;;;;;1.02;0.82;;;22.80;43.00;;;;;;4869245;29;20049;-58
2022/05/23 12:31:05;;;;;;;4.35;1.15;;;22.80;43.40;;;;;;4880609;29;20087;-58
2022/05/23 12:33:34;;;;;;;5.13;1.10;;;22.90;43.40;;;;;;4886928;29;20513;-64
2022/05/23 12:36:08;;;;;;;2.10;1.38;;;22.70;43.90;;;;;;4868801;29;20049;-59
2022/05/23 12:39:15;;;;;;;4.85;1.48;;;22.20;45.00;;;;;;4871383;29;20057;-60
2022/05/23 12:41:53;;;;;;;5.10;1.08;;;21.70;46.60;;;;;;4876470;29;20048;-59
2022/05/23 12:45:01;;;;;;;3.03;1.55;;;21.30;47.40;;;;;;4885692;29;20052;-61
2022/05/23 12:48:01;;;;;;;2.08;1.20;;;21.00;48.30;;;;;;4868396;29;20077;-63
2022/05/23 12:54:37;;;;;;;4.65;1.30;;;20.50;49.10;;;;;;4868848;29;20450;-61
2022/05/23 12:57:26;;;;;;;2.13;1.20;;;20.40;49.50;;;;;;4867560;29;20108;-60
2022/05/23 13:00:14;;;;;;;1.33;1.15;;;20.30;49.90;;;;;;4868158;29;20097;-61
2022/05/23 13:03:07;;;;;;;2.10;1.10;;;20.10;50.00;;;;;;4871571;29;20568;-60
2022/05/23 13:05:49;;;;;;;3.92;1.20;;;20.10;50.10;;;;;;4872350;29;20049;-60
2022/05/23 13:08:25;;;;;;;3.15;1.70;;;20.00;50.60;;;;;;4866304;29;20093;-60
2022/05/23 13:11:03;;;;;;;2.25;1.48;;;20.00;50.40;;;;;;4866465;29;20061;-61
2022/05/23 13:13:38;;;;;;;1.67;1.10;;;19.90;50.20;;;;;;4866384;29;20053;-61
2022/05/23 13:16:16;;;;;;;4.55;1.38;;;19.90;50.60;;;;;;4867614;29;20053;-60
2022/05/23 13:27:11;;;;;;;1.55;1.10;;;19.70;51.40;;;;;;4880679;29;20076;-59
2022/05/23 13:29:39;;;;;;;3.50;1.20;;;19.70;51.70;;;;;;4866088;29;20113;-59
2022/05/23 13:32:16;;;;;;;3.40;1.13;;;19.70;51.80;;;;;;4882746;29;20459;-59
2022/05/23 13:34:46;;;;;;;1.40;1.20;;;19.70;51.90;;;;;;4882707;29;20704;-60
2022/05/23 13:37:35;;;;;;;3.35;0.98;;;19.70;51.90;;;;;;4869802;29;20076;-60
2022/05/23 13:40:14;;;;;;;1.38;1.20;;;19.70;51.90;;;;;;4868919;29;20049;-59
2022/05/23 13:42:42;;;;;;;1.45;1.10;;;19.70;51.90;;;;;;4868667;29;20078;-61
2022/05/23 13:45:13;;;;;;;1.00;1.00;;;19.70;52.10;;;;;;4857164;29;20057;-60
2022/05/23 13:48:03;;;;;;;3.47;1.10;;;19.70;52.10;;;;;;4863951;29;20049;-58
2022/05/23 13:50:42;;;;;;;2.22;0.93;;;19.80;51.80;;;;;;4869138;29;20045;-59
2022/05/23 13:53:18;;;;;;;1.15;0.90;;;19.80;51.80;;;;;;4877047;29;20073;-58
2022/05/23 13:55:49;;;;;;;1.70;0.95;;;19.80;51.80;;;;;;4865811;29;20498;-59
2022/05/23 13:58:26;;;;;;;2.67;1.00;;;19.90;51.60;;;;;;4866257;29;20045;-59
2022/05/23 14:01:05;;;;;;;2.03;1.20;;;19.90;51.30;;;;;;4867382;29;20052;-58
2022/05/23 14:03:36;;;;;;;1.48;1.10;;;20.00;51.30;;;;;;4868056;29;20081;-60
2022/05/23 14:06:07;;;;;;;1.23;1.13;;;20.00;51.20;;;;;;4885216;29;20501;-59
2022/05/23 14:08:40;;;;;;;1.83;1.67;;;20.00;51.20;;;;;;4867859;29;20504;-59
2022/05/23 14:11:26;;;;;;;5.00;1.40;;;19.90;51.10;;;;;;4877574;29;20053;-60
2022/05/23 14:14:14;;;;;;;1.70;1.42;;;19.90;51.50;;;;;;4866041;29;20049;-60
2022/05/23 14:16:53;;;;;;;1.10;0.98;;;19.80;51.10;;;;;;4863294;29;20493;-62
2022/05/23 14:19:25;;;;;;;1.20;1.10;;;19.80;51.10;;;;;;4871339;29;20049;-60
2022/05/23 14:22:07;;;;;;;1.65;1.20;;;19.80;51.10;;;;;;4866027;29;20061;-59
2022/05/23 14:24:43;;;;;;;6.15;1.58;;;19.80;51.20;;;;;;4867291;29;20105;-59
2022/05/23 14:27:23;;;;;;;1.20;1.10;;;19.80;52.00;;;;;;4864449;29;20048;-62
2022/05/23 14:30:30;;;;;;;3.38;1.80;;;19.80;51.40;;;;;;4864926;29;20601;-59
2022/05/23 14:33:00;;;;;;;0.88;0.82;;;19.80;51.40;;;;;;4878692;29;20143;-60
2022/05/23 14:35:49;;;;;;;1.85;1.20;;;19.80;51.40;;;;;;4866459;29;20101;-59
2022/05/23 14:38:40;;;;;;;3.35;1.13;;;19.70;51.20;;;;;;4864020;29;20045;-59
2022/05/23 14:41:29;;;;;;;2.08;1.30;;;19.70;51.30;;;;;;4871739;29;20113;-62
2022/05/23 14:44:27;;;;;;;1.05;1.05;;;19.70;51.20;;;;;;4870936;29;20139;-59
2022/05/23 14:47:21;;;;;;;1.35;1.25;;;19.70;51.10;;;;;;4867636;29;20921;-61
2022/05/23 14:50:05;;;;;;;1.88;1.45;;;19.80;51.10;;;;;;4872432;29;20053;-61
2022/05/23 14:52:45;;;;;;;1.20;1.10;;;19.70;51.50;;;;;;4871516;29;20056;-62
2022/05/23 14:55:18;;;;;;;1.42;1.33;;;19.70;52.20;;;;;;4871562;29;20105;-61
2022/05/23 15:00:53;;;;;;;1.67;1.10;;;19.80;53.40;;;;;;4870023;29;20482;-61
2022/05/23 15:03:28;;;;;;;0.90;0.90;;;19.90;53.90;;;;;;4868603;29;20049;-61
2022/05/23 15:05:56;;;;;;;3.15;1.50;;;20.00;54.20;;;;;;4870610;29;20675;-61
2022/05/23 15:08:24;;;;;;;2.63;1.15;;;20.20;54.50;;;;;;4869964;29;20068;-61
2022/05/23 15:10:54;;;;;;;1.75;1.23;;;20.30;54.80;;;;;;4869264;29;20056;-61
2022/05/23 15:13:22;;;;;;;2.45;1.02;;;20.40;54.80;;;;;;4884417;29;20128;-59
2022/05/23 15:15:49;;;;;;;1.17;1.17;;;20.60;55.00;;;;;;4870751;29;20143;-60
2022/05/23 15:18:18;;;;;;;1.75;1.27;;;20.80;55.10;;;;;;4868499;29;20037;-59
2022/05/23 15:20:48;;;;;;;1.13;0.95;;;20.90;55.20;;;;;;4865306;29;20053;-61
2022/05/23 15:23:15;;;;;;;1.17;1.10;;;21.00;55.30;;;;;;4869553;29;20490;-60
2022/05/23 15:25:42;;;;;;;2.15;1.58;;;21.10;55.40;;;;;;4869804;29;20522;-57
2022/05/23 15:28:09;;;;;;;1.33;1.23;;;21.20;55.30;;;;;;4870886;29;20053;-58
2022/05/23 15:30:44;;;;;;;0.90;0.90;;;21.40;55.60;;;;;;4871013;29;20048;-57
2022/05/23 15:33:14;;;;;;;1.17;1.17;;;21.50;55.70;;;;;;4869177;29;20045;-58
2022/05/23 15:35:41;;;;;;;1.02;1.00;;;21.70;55.70;;;;;;4870226;29;20126;-58
2022/05/23 15:38:08;;;;;;;1.95;1.08;;;21.80;55.60;;;;;;4868568;29;20121;-58
2022/05/23 15:40:36;;;;;;;3.85;1.00;;;21.90;55.40;;;;;;4869521;29;20060;-58